createdAt,value
2023-08-22T00:00:44.098Z,84.24
2023-08-22T00:01:44.009Z,84.44
2023-08-22T00:02:44.017Z,83.79
2023-08-22T00:03:44.108Z,83.36
2023-08-22T00:04:43.982Z,83.71
2023-08-22T00:05:43.952Z,84.03
2023-08-22T00:06:43.948Z,84.38
2023-08-22T00:07:43.972Z,84.62
2023-08-22T00:08:43.921Z,84.51
2023-08-22T00:09:43.952Z,83.85
2023-08-22T00:10:43.940Z,83.23
2023-08-22T00:11:43.889Z,82.77
2023-08-22T00:12:43.910Z,83.14
2023-08-22T00:13:43.862Z,83.59
2023-08-22T00:14:43.859Z,83.83
2023-08-22T00:15:43.867Z,83.86
2023-08-22T00:16:43.835Z,84.08
2023-08-22T00:17:43.856Z,83.51
2023-08-22T00:18:43.862Z,83.40
2023-08-22T00:19:43.824Z,83.60
2023-08-22T00:20:43.805Z,83.98
2023-08-22T00:21:43.822Z,83.95
2023-08-22T00:22:43.783Z,84.48
2023-08-22T00:23:43.795Z,84.56
2023-08-22T00:24:43.749Z,84.73
2023-08-22T00:25:43.753Z,85.10
2023-08-22T00:26:43.733Z,84.33
2023-08-22T00:27:43.950Z,83.77
2023-08-22T00:28:43.707Z,83.57
2023-08-22T00:29:43.707Z,83.36
2023-08-22T00:30:43.813Z,82.96
2023-08-22T00:31:43.669Z,82.31
2023-08-22T00:32:43.689Z,82.54
2023-08-22T00:33:43.682Z,82.65
2023-08-22T00:34:43.647Z,83.63
2023-08-22T00:35:43.689Z,84.17
2023-08-22T00:36:43.618Z,83.78
2023-08-22T00:37:43.620Z,83.57
2023-08-22T00:38:43.601Z,83.06
2023-08-22T00:39:43.623Z,82.85
2023-08-22T00:40:43.581Z,82.64
2023-08-22T00:41:43.575Z,82.66
2023-08-22T00:42:43.559Z,82.76
2023-08-22T00:43:43.569Z,82.73
2023-08-22T00:44:43.538Z,82.05
2023-08-22T00:45:43.568Z,82.57
2023-08-22T00:46:43.559Z,82.55
2023-08-22T00:47:43.824Z,83.36
2023-08-22T00:48:43.509Z,83.98
2023-08-22T00:49:43.491Z,84.49
2023-08-22T00:50:43.464Z,84.74
2023-08-22T00:51:43.487Z,84.83
2023-08-22T00:52:43.450Z,84.80
2023-08-22T00:53:43.476Z,84.22
2023-08-22T00:54:43.445Z,83.27
2023-08-22T00:55:43.513Z,83.39
2023-08-22T00:56:43.439Z,83.44
2023-08-22T00:57:43.849Z,83.30
2023-08-22T00:58:43.392Z,83.44
2023-08-22T00:59:43.432Z,83.67
2023-08-22T01:00:43.444Z,84.19
2023-08-22T01:01:43.364Z,84.79
2023-08-22T01:02:43.469Z,84.76
2023-08-22T01:03:43.456Z,84.72
2023-08-22T01:04:43.361Z,84.79
2023-08-22T01:05:43.311Z,84.52
2023-08-22T01:06:43.305Z,84.11
2023-08-22T01:07:43.292Z,83.93
2023-08-22T01:08:43.287Z,84.53
2023-08-22T01:09:43.283Z,84.41
2023-08-22T01:10:43.302Z,83.91
2023-08-22T01:11:43.258Z,83.75
2023-08-22T01:12:43.264Z,84.18
2023-08-22T01:13:43.235Z,84.29
2023-08-22T01:14:43.216Z,84.10
2023-08-22T01:15:43.236Z,83.78
2023-08-22T01:16:43.275Z,83.74
2023-08-22T01:17:43.472Z,84.40
2023-08-22T01:18:43.169Z,84.43
2023-08-22T01:19:43.201Z,84.48
2023-08-22T01:20:43.183Z,84.49
2023-08-22T01:21:43.163Z,84.05
2023-08-22T01:22:43.177Z,84.68
2023-08-22T01:23:43.116Z,84.90
2023-08-22T01:24:43.119Z,84.52
2023-08-22T01:25:43.120Z,84.39
2023-08-22T01:26:43.096Z,84.19
2023-08-22T01:27:43.201Z,83.88
2023-08-22T01:28:43.098Z,83.31
2023-08-22T01:29:43.065Z,83.51
2023-08-22T01:30:43.057Z,83.64
2023-08-22T01:31:43.069Z,83.87
2023-08-22T01:32:43.069Z,84.08
2023-08-22T01:33:43.049Z,84.50
2023-08-22T01:34:43.016Z,84.71
2023-08-22T01:35:42.999Z,84.22
2023-08-22T01:36:42.987Z,84.13
2023-08-22T01:37:42.987Z,84.37
2023-08-22T01:38:42.968Z,84.92
2023-08-22T01:39:42.998Z,85.25
2023-08-22T01:40:42.945Z,85.21
2023-08-22T01:41:42.940Z,84.53
2023-08-22T01:42:42.953Z,84.22
2023-08-22T01:43:42.902Z,84.12
2023-08-22T01:44:42.945Z,84.10
2023-08-22T01:45:42.955Z,84.19
2023-08-22T01:46:42.881Z,84.19
2023-08-22T01:47:43.263Z,84.06
2023-08-22T01:48:42.871Z,83.78
2023-08-22T01:49:42.869Z,84.01
2023-08-22T01:50:42.860Z,84.35
2023-08-22T01:51:42.851Z,84.22
2023-08-22T01:52:42.827Z,83.97
2023-08-22T01:53:42.815Z,83.63
2023-08-22T01:54:42.785Z,83.59
2023-08-22T01:55:42.847Z,83.53
2023-08-22T01:56:42.776Z,83.62
2023-08-22T01:57:42.758Z,83.48
2023-08-22T01:58:42.757Z,84.26
2023-08-22T01:59:42.743Z,84.99
2023-08-22T02:00:42.773Z,84.82
2023-08-22T02:01:42.754Z,84.41
2023-08-22T02:02:42.837Z,84.12
2023-08-22T02:03:42.781Z,84.16
2023-08-22T02:04:42.687Z,84.23
2023-08-22T02:05:42.679Z,85.26
2023-08-22T02:06:42.697Z,85.59
2023-08-22T02:07:42.940Z,85.57
2023-08-22T02:08:42.636Z,85.44
2023-08-22T02:09:42.628Z,85.34
2023-08-22T02:10:42.654Z,85.10
2023-08-22T02:11:42.614Z,85.25
2023-08-22T02:12:42.604Z,85.51
2023-08-22T02:13:42.643Z,85.24
2023-08-22T02:14:42.586Z,85.04
2023-08-22T02:15:42.576Z,84.71
2023-08-22T02:16:42.604Z,84.95
2023-08-22T02:17:42.859Z,85.35
2023-08-22T02:18:42.575Z,85.09
2023-08-22T02:19:42.542Z,84.66
2023-08-22T02:20:42.524Z,84.17
2023-08-22T02:21:42.544Z,84.31
2023-08-22T02:22:42.513Z,84.20
2023-08-22T02:23:42.486Z,84.25
2023-08-22T02:24:42.498Z,83.86
2023-08-22T02:25:42.482Z,83.88
2023-08-22T02:26:42.484Z,84.33
2023-08-22T02:27:42.683Z,85.32
2023-08-22T02:28:42.437Z,85.79
2023-08-22T02:29:42.423Z,86.28
2023-08-22T02:30:42.437Z,86.19
2023-08-22T02:31:42.459Z,85.34
2023-08-22T02:32:42.476Z,84.99
2023-08-22T02:33:42.513Z,84.48
2023-08-22T02:34:42.402Z,84.26
2023-08-22T02:35:42.386Z,84.40
2023-08-22T02:36:42.372Z,83.76
2023-08-22T02:37:42.524Z,83.71
2023-08-22T02:38:42.334Z,83.56
2023-08-22T02:39:42.321Z,83.65
2023-08-22T02:40:42.311Z,83.73
2023-08-22T02:41:42.326Z,84.30
2023-08-22T02:42:42.320Z,84.22
2023-08-22T02:43:42.288Z,84.19
2023-08-22T02:44:42.279Z,84.80
2023-08-22T02:45:42.281Z,84.99
2023-08-22T02:46:42.261Z,85.06
2023-08-22T02:47:42.596Z,85.48
2023-08-22T02:48:42.261Z,85.55
2023-08-22T02:49:42.211Z,85.49
2023-08-22T02:50:42.306Z,85.76
2023-08-22T02:51:42.185Z,85.32
2023-08-22T02:52:42.185Z,84.79
2023-08-22T02:53:42.162Z,85.50
2023-08-22T02:54:42.179Z,85.91
2023-08-22T02:55:42.178Z,86.37
2023-08-22T02:56:42.175Z,85.97
2023-08-22T02:57:42.380Z,85.38
2023-08-22T02:58:42.164Z,85.08
2023-08-22T02:59:42.135Z,84.75
2023-08-22T03:00:42.101Z,84.83
2023-08-22T03:01:42.089Z,85.55
2023-08-22T03:02:42.221Z,85.79
2023-08-22T03:03:42.073Z,85.41
2023-08-22T03:04:42.089Z,84.98
2023-08-22T03:05:42.040Z,84.90
2023-08-22T03:06:42.033Z,84.64
2023-08-22T03:07:42.295Z,84.60
2023-08-22T03:08:42.017Z,84.32
2023-08-22T03:09:42.002Z,84.42
2023-08-22T03:10:42.014Z,85.02
2023-08-22T03:11:41.984Z,85.49
2023-08-22T03:12:42.006Z,85.66
2023-08-22T03:13:41.977Z,85.57
2023-08-22T03:14:41.947Z,85.97
2023-08-22T03:15:42.030Z,86.22
2023-08-22T03:16:42.010Z,86.77
2023-08-22T03:17:42.224Z,86.31
2023-08-22T03:18:41.899Z,85.61
2023-08-22T03:19:41.903Z,85.23
2023-08-22T03:20:41.875Z,85.37
2023-08-22T03:21:41.887Z,85.45
2023-08-22T03:22:41.861Z,85.16
2023-08-22T03:23:41.853Z,84.94
2023-08-22T03:24:41.833Z,84.84
2023-08-22T03:25:41.830Z,84.58
2023-08-22T03:26:42.003Z,84.40
2023-08-22T03:27:42.092Z,84.68
2023-08-22T03:28:41.804Z,85.00
2023-08-22T03:29:41.780Z,84.71
2023-08-22T03:30:41.818Z,84.64
2023-08-22T03:31:41.768Z,84.34
2023-08-22T03:32:41.803Z,84.16
2023-08-22T03:33:41.742Z,84.27
2023-08-22T03:34:41.730Z,84.26
2023-08-22T03:35:41.723Z,84.43
2023-08-22T03:36:41.730Z,84.29
2023-08-22T03:37:42.033Z,84.67
2023-08-22T03:38:41.688Z,84.97
2023-08-22T03:39:41.674Z,84.71
2023-08-22T03:40:41.694Z,84.22
2023-08-22T03:41:41.660Z,84.53
2023-08-22T03:42:41.650Z,85.12
2023-08-22T03:43:41.635Z,85.72
2023-08-22T03:44:41.629Z,85.91
2023-08-22T03:45:41.614Z,85.72
2023-08-22T03:46:41.668Z,85.41
2023-08-22T03:47:41.853Z,84.97
2023-08-22T03:48:41.595Z,84.83
2023-08-22T03:49:41.574Z,84.83
2023-08-22T03:50:41.582Z,84.38
2023-08-22T03:51:41.557Z,84.84
2023-08-22T03:52:41.568Z,85.27
2023-08-22T03:53:41.533Z,85.07
2023-08-22T03:54:41.534Z,85.04
2023-08-22T03:55:41.505Z,85.49
2023-08-22T03:56:41.509Z,85.48
2023-08-22T03:57:41.718Z,85.45
2023-08-22T03:58:41.485Z,85.24
2023-08-22T03:59:41.466Z,85.12
2023-08-22T04:00:41.529Z,84.48
2023-08-22T04:01:41.451Z,84.45
2023-08-22T04:02:41.555Z,84.74
2023-08-22T04:03:41.421Z,85.18
2023-08-22T04:04:41.421Z,85.99
2023-08-22T04:05:41.433Z,85.98
2023-08-22T04:06:41.454Z,85.76
2023-08-22T04:07:41.721Z,85.68
2023-08-22T04:08:41.411Z,85.65
2023-08-22T04:09:41.384Z,85.37
2023-08-22T04:10:41.365Z,85.24
2023-08-22T04:11:41.358Z,85.63
2023-08-22T04:12:41.324Z,85.23
2023-08-22T04:13:41.348Z,84.92
2023-08-22T04:14:41.330Z,84.63
2023-08-22T04:15:41.349Z,84.68
2023-08-22T04:16:41.336Z,84.92
2023-08-22T04:17:41.519Z,84.95
2023-08-22T04:18:41.280Z,85.19
2023-08-22T04:19:41.248Z,85.14
2023-08-22T04:20:41.265Z,84.94
2023-08-22T04:21:41.237Z,84.53
2023-08-22T04:22:41.246Z,85.14
2023-08-22T04:23:41.214Z,85.16
2023-08-22T04:24:41.226Z,84.87
2023-08-22T04:25:41.228Z,84.93
2023-08-22T04:26:41.229Z,84.93
2023-08-22T04:27:42.014Z,84.82
2023-08-22T04:28:41.153Z,84.91
2023-08-22T04:29:41.167Z,85.17
2023-08-22T04:30:41.170Z,85.68
2023-08-22T04:31:41.188Z,85.39
2023-08-22T04:32:41.202Z,85.05
2023-08-22T04:33:41.133Z,85.39
2023-08-22T04:34:41.117Z,85.22
2023-08-22T04:35:41.078Z,85.22
2023-08-22T04:36:41.116Z,85.21
2023-08-22T04:37:41.302Z,85.32
2023-08-22T04:38:41.097Z,85.09
2023-08-22T04:39:41.066Z,85.43
2023-08-22T04:40:41.033Z,85.43
2023-08-22T04:41:41.017Z,85.30
2023-08-22T04:42:41.008Z,85.11
2023-08-22T04:43:41.030Z,85.42
2023-08-22T04:44:40.984Z,85.32
2023-08-22T04:45:40.997Z,85.34
2023-08-22T04:46:41.057Z,85.05
2023-08-22T04:47:41.228Z,84.96
2023-08-22T04:48:40.936Z,85.32
2023-08-22T04:49:40.933Z,85.56
2023-08-22T04:50:40.928Z,85.43
2023-08-22T04:51:40.962Z,85.45
2023-08-22T04:52:40.908Z,85.40
2023-08-22T04:53:40.917Z,85.39
2023-08-22T04:54:40.872Z,85.27
2023-08-22T04:55:40.870Z,85.30
2023-08-22T04:56:40.884Z,85.82
2023-08-22T04:57:41.470Z,86.06
2023-08-22T04:58:40.905Z,86.45
2023-08-22T04:59:40.826Z,87.07
2023-08-22T05:00:40.875Z,86.58
2023-08-22T05:01:40.855Z,86.26
2023-08-22T05:02:40.843Z,86.03
2023-08-22T05:03:40.790Z,85.99
2023-08-22T05:04:40.774Z,86.03
2023-08-22T05:05:40.922Z,85.93
2023-08-22T05:06:40.831Z,86.37
2023-08-22T05:07:41.037Z,86.57
2023-08-22T05:08:40.767Z,87.02
2023-08-22T05:09:40.742Z,86.81
2023-08-22T05:10:40.776Z,86.44
2023-08-22T05:11:40.708Z,86.41
2023-08-22T05:12:40.802Z,86.52
2023-08-22T05:13:40.737Z,86.17
2023-08-22T05:14:40.740Z,85.78
2023-08-22T05:15:40.688Z,85.61
2023-08-22T05:16:40.776Z,85.72
2023-08-22T05:17:41.041Z,85.65
2023-08-22T05:18:40.680Z,85.65
2023-08-22T05:19:40.636Z,85.60
2023-08-22T05:20:40.613Z,85.27
2023-08-22T05:21:40.636Z,85.34
2023-08-22T05:22:40.588Z,85.77
2023-08-22T05:23:40.623Z,86.15
2023-08-22T05:24:40.576Z,85.81
2023-08-22T05:25:40.556Z,85.54
2023-08-22T05:26:40.715Z,85.75
2023-08-22T05:27:40.765Z,85.77
2023-08-22T05:28:40.521Z,85.78
2023-08-22T05:29:40.504Z,85.74
2023-08-22T05:30:40.517Z,85.67
2023-08-22T05:31:40.518Z,85.96
2023-08-22T05:32:40.565Z,86.33
2023-08-22T05:33:40.476Z,86.53
2023-08-22T05:34:40.453Z,87.03
2023-08-22T05:35:40.468Z,87.46
2023-08-22T05:36:40.429Z,87.87
2023-08-22T05:37:40.706Z,87.82
2023-08-22T05:38:40.483Z,88.03
2023-08-22T05:39:40.402Z,88.36
2023-08-22T05:40:40.410Z,88.36
2023-08-22T05:41:40.441Z,88.37
2023-08-22T05:42:40.375Z,88.36
2023-08-22T05:43:40.353Z,88.33
2023-08-22T05:44:40.407Z,88.06
2023-08-22T05:45:40.380Z,87.49
2023-08-22T05:46:40.345Z,87.16
2023-08-22T05:47:40.654Z,87.23
2023-08-22T05:48:40.314Z,87.61
2023-08-22T05:49:40.826Z,87.65
2023-08-22T05:50:40.265Z,87.58
2023-08-22T05:51:40.272Z,87.76
2023-08-22T05:52:40.269Z,87.35
2023-08-22T05:53:40.264Z,86.81
2023-08-22T05:54:40.245Z,86.72
2023-08-22T05:55:40.245Z,86.43
2023-08-22T05:56:40.206Z,86.14
2023-08-22T05:57:40.661Z,85.96
2023-08-22T05:58:40.183Z,85.73
2023-08-22T05:59:40.245Z,85.79
2023-08-22T06:00:40.176Z,85.77
2023-08-22T06:01:40.252Z,85.86
2023-08-22T06:02:40.241Z,85.71
2023-08-22T06:03:40.506Z,85.66
2023-08-22T06:04:40.196Z,85.55
2023-08-22T06:05:40.183Z,85.87
2023-08-22T06:06:40.154Z,85.98
2023-08-22T06:07:40.358Z,86.40
2023-08-22T06:08:40.141Z,86.47
2023-08-22T06:09:40.130Z,86.91
2023-08-22T06:10:40.119Z,86.20
2023-08-22T06:11:40.086Z,86.15
2023-08-22T06:12:40.044Z,84.82
2023-08-22T06:13:40.078Z,84.70
2023-08-22T06:14:40.034Z,84.57
2023-08-22T06:15:40.055Z,84.55
2023-08-22T06:16:40.033Z,84.57
2023-08-22T06:17:40.279Z,84.04
2023-08-22T06:18:40.076Z,83.88
2023-08-22T06:19:39.973Z,84.36
2023-08-22T06:20:40.012Z,83.54
2023-08-22T06:21:39.961Z,82.90
2023-08-22T06:22:40.005Z,83.06
2023-08-22T06:23:39.924Z,83.08
2023-08-22T06:24:39.931Z,83.23
2023-08-22T06:25:39.944Z,83.20
2023-08-22T06:26:39.899Z,82.80
2023-08-22T06:27:40.149Z,82.34
2023-08-22T06:28:39.970Z,81.47
2023-08-22T06:29:39.861Z,81.20
2023-08-22T06:30:39.849Z,80.56
2023-08-22T06:31:39.910Z,80.49
2023-08-22T06:32:39.893Z,80.57
2023-08-22T06:33:39.925Z,80.64
2023-08-22T06:34:39.849Z,80.30
2023-08-22T06:35:39.796Z,80.44
2023-08-22T06:36:39.823Z,79.73
2023-08-22T06:37:40.166Z,79.27
2023-08-22T06:38:39.807Z,79.15
2023-08-22T06:39:39.801Z,78.53
2023-08-22T06:40:39.796Z,78.34
2023-08-22T06:41:39.755Z,78.05
2023-08-22T06:42:39.731Z,78.07
2023-08-22T06:43:39.742Z,78.02
2023-08-22T06:44:39.698Z,78.73
2023-08-22T06:45:39.727Z,78.43
2023-08-22T06:46:39.678Z,78.87
2023-08-22T06:47:40.036Z,78.88
2023-08-22T06:48:42.591Z,78.09
2023-08-22T06:49:39.656Z,78.74
2023-08-22T06:50:39.640Z,78.87
2023-08-22T06:51:39.631Z,77.67
2023-08-22T06:52:39.645Z,76.95
2023-08-22T06:53:39.635Z,77.08
2023-08-22T06:54:39.601Z,77.54
2023-08-22T06:55:39.577Z,77.07
2023-08-22T06:56:39.598Z,77.80
2023-08-22T06:57:42.055Z,76.89
2023-08-22T06:58:39.658Z,77.55
2023-08-22T06:59:39.603Z,76.65
2023-08-22T07:00:39.529Z,74.83
2023-08-22T07:01:39.567Z,76.73
2023-08-22T07:02:39.597Z,77.08
2023-08-22T07:03:39.626Z,76.22
2023-08-22T07:04:39.696Z,76.19
2023-08-22T07:05:39.511Z,75.43
2023-08-22T07:06:39.524Z,76.17
2023-08-22T07:07:39.795Z,75.22
2023-08-22T07:08:39.504Z,75.21
2023-08-22T07:09:39.459Z,74.31
2023-08-22T07:10:39.586Z,72.87
2023-08-22T07:11:39.433Z,74.06
2023-08-22T07:12:40.122Z,72.67
2023-08-22T07:13:39.387Z,73.48
2023-08-22T07:14:39.436Z,74.01
2023-08-22T07:15:39.367Z,74.32
2023-08-22T07:16:39.446Z,74.27
2023-08-22T07:17:42.645Z,73.64
2023-08-22T07:18:39.369Z,73.11
2023-08-22T07:19:42.296Z,73.24
2023-08-22T07:20:39.326Z,73.57
2023-08-22T07:21:39.302Z,73.50
2023-08-22T07:22:39.679Z,73.57
2023-08-22T07:23:39.280Z,72.12
2023-08-22T07:24:39.313Z,72.30
2023-08-22T07:25:39.286Z,69.82
2023-08-22T07:26:39.246Z,70.88
2023-08-22T07:27:39.540Z,71.19
2023-08-22T07:28:39.243Z,70.43
2023-08-22T07:29:39.229Z,69.59
2023-08-22T07:30:39.286Z,70.11
2023-08-22T07:31:39.228Z,67.82
2023-08-22T07:32:39.366Z,67.14
2023-08-22T07:33:39.199Z,68.63
2023-08-22T07:34:39.175Z,68.49
2023-08-22T07:35:39.154Z,67.11
2023-08-22T07:36:39.167Z,68.45
2023-08-22T07:37:39.194Z,67.71
2023-08-22T07:38:39.140Z,67.36
2023-08-22T07:39:39.123Z,67.38
2023-08-22T07:40:39.128Z,67.67
2023-08-22T07:41:39.086Z,66.54
2023-08-22T07:42:39.375Z,67.05
2023-08-22T07:43:39.109Z,68.35
2023-08-22T07:44:39.056Z,68.47
2023-08-22T07:45:39.055Z,68.97
2023-08-22T07:46:39.123Z,69.00
2023-08-22T07:47:39.082Z,67.35
2023-08-22T07:48:39.067Z,67.75
2023-08-22T07:49:39.051Z,67.85
2023-08-22T07:50:38.989Z,67.43
2023-08-22T07:51:39.007Z,67.12
2023-08-22T07:52:38.998Z,66.82
2023-08-22T07:53:38.972Z,67.21
2023-08-22T07:54:38.961Z,65.51
2023-08-22T07:55:38.968Z,66.20
2023-08-22T07:56:38.926Z,65.66
2023-08-22T07:57:38.919Z,67.24
2023-08-22T07:58:38.979Z,66.71
2023-08-22T07:59:38.921Z,67.36
2023-08-22T08:00:39.023Z,66.87
2023-08-22T08:01:38.896Z,67.39
2023-08-22T08:02:38.950Z,67.43
2023-08-22T08:03:38.970Z,65.90
2023-08-22T08:04:38.866Z,64.54
2023-08-22T08:05:38.883Z,64.64
2023-08-22T08:06:38.855Z,64.54
2023-08-22T08:07:38.827Z,65.01
2023-08-22T08:08:38.808Z,65.54
2023-08-22T08:09:38.796Z,65.14
2023-08-22T08:10:38.989Z,65.52
2023-08-22T08:11:38.934Z,65.18
2023-08-22T08:12:38.755Z,65.42
2023-08-22T08:13:38.771Z,65.11
2023-08-22T08:14:38.728Z,66.56
2023-08-22T08:15:38.810Z,65.92
2023-08-22T08:16:41.048Z,66.41
2023-08-22T08:17:38.847Z,67.00
2023-08-22T08:18:38.704Z,67.58
2023-08-22T08:19:38.681Z,66.34
2023-08-22T08:20:38.680Z,66.81
2023-08-22T08:21:38.711Z,68.05
2023-08-22T08:22:38.657Z,67.09
2023-08-22T08:23:38.640Z,67.19
2023-08-22T08:24:38.636Z,65.60
2023-08-22T08:25:38.643Z,64.79
2023-08-22T08:26:38.604Z,66.09
2023-08-22T08:27:38.611Z,65.33
2023-08-22T08:28:38.587Z,64.17
2023-08-22T08:29:38.572Z,64.34
2023-08-22T08:30:38.616Z,64.52
2023-08-22T08:31:38.544Z,63.98
2023-08-22T08:32:38.633Z,63.90
2023-08-22T08:33:38.530Z,65.34
2023-08-22T08:34:38.536Z,65.06
2023-08-22T08:35:38.504Z,64.50
2023-08-22T08:36:38.498Z,64.58
2023-08-22T08:37:38.525Z,63.47
2023-08-22T08:38:38.581Z,63.62
2023-08-22T08:39:38.468Z,63.25
2023-08-22T08:40:38.500Z,62.20
2023-08-22T08:41:38.476Z,59.10
2023-08-22T08:42:38.462Z,60.22
2023-08-22T08:43:38.440Z,60.54
2023-08-22T08:44:38.444Z,60.04
2023-08-22T08:45:38.431Z,58.61
2023-08-22T08:46:38.460Z,59.83
2023-08-22T08:47:38.399Z,59.85
2023-08-22T08:48:38.394Z,58.42
2023-08-22T08:49:38.363Z,59.31
2023-08-22T08:50:38.369Z,58.48
2023-08-22T08:51:38.364Z,59.58
2023-08-22T08:52:38.363Z,59.73
2023-08-22T08:53:38.330Z,60.88
2023-08-22T08:54:38.381Z,60.61
2023-08-22T08:55:38.333Z,61.11
2023-08-22T08:56:38.323Z,61.30
2023-08-22T08:57:38.304Z,61.19
2023-08-22T08:58:38.305Z,62.16
2023-08-22T08:59:38.268Z,62.99
2023-08-22T09:00:38.233Z,62.26
2023-08-22T09:01:38.243Z,61.72
2023-08-22T09:02:38.261Z,61.61
2023-08-22T09:03:38.289Z,61.08
2023-08-22T09:04:38.201Z,61.45
2023-08-22T09:05:38.267Z,60.98
2023-08-22T09:06:38.260Z,61.13
2023-08-22T09:07:38.173Z,60.14
2023-08-22T09:08:38.173Z,59.19
2023-08-22T09:09:38.183Z,59.06
2023-08-22T09:10:38.147Z,59.76
2023-08-22T09:11:41.958Z,58.97
2023-08-22T09:12:38.115Z,58.59
2023-08-22T09:13:50.235Z,57.21
2023-08-22T09:14:38.102Z,56.67
2023-08-22T09:15:38.116Z,54.70
2023-08-22T09:16:38.121Z,54.52
2023-08-22T09:17:38.112Z,54.33
2023-08-22T09:18:38.085Z,53.14
2023-08-22T09:19:38.041Z,52.47
2023-08-22T09:20:38.036Z,52.15
2023-08-22T09:21:38.041Z,53.82
2023-08-22T09:22:38.034Z,53.59
2023-08-22T09:23:38.005Z,54.46
2023-08-22T09:24:38.954Z,55.53
2023-08-22T09:25:37.985Z,56.03
2023-08-22T09:26:38.007Z,56.48
2023-08-22T09:27:37.984Z,56.31
2023-08-22T09:28:37.943Z,56.09
2023-08-22T09:29:38.535Z,56.49
2023-08-22T09:30:37.935Z,56.83
2023-08-22T09:31:38.148Z,56.71
2023-08-22T09:32:37.979Z,57.01
2023-08-22T09:33:37.900Z,56.97
2023-08-22T09:34:37.900Z,56.22
2023-08-22T09:35:37.905Z,57.01
2023-08-22T09:36:37.862Z,57.92
2023-08-22T09:37:37.922Z,59.73
2023-08-22T09:38:37.864Z,58.40
2023-08-22T09:39:37.842Z,58.41
2023-08-22T09:40:37.836Z,57.86
2023-08-22T09:41:37.842Z,58.54
2023-08-22T09:42:37.808Z,59.40
2023-08-22T09:43:37.790Z,58.44
2023-08-22T09:44:37.815Z,58.86
2023-08-22T09:45:37.793Z,60.33
2023-08-22T09:46:37.768Z,59.62
2023-08-22T09:47:37.808Z,58.48
2023-08-22T09:48:37.777Z,58.65
2023-08-22T09:49:37.733Z,58.60
2023-08-22T09:50:37.722Z,58.98
2023-08-22T09:51:37.717Z,58.54
2023-08-22T09:52:37.791Z,58.88
2023-08-22T09:53:37.674Z,58.95
2023-08-22T09:54:37.664Z,58.77
2023-08-22T09:55:37.683Z,58.26
2023-08-22T09:56:37.644Z,59.05
2023-08-22T09:57:37.691Z,59.45
2023-08-22T09:58:37.647Z,59.07
2023-08-22T09:59:37.655Z,59.98
2023-08-22T10:00:37.611Z,60.59
2023-08-22T10:01:37.712Z,59.38
2023-08-22T10:02:37.688Z,58.78
2023-08-22T10:03:37.661Z,59.77
2023-08-22T10:04:37.676Z,59.57
2023-08-22T10:05:37.588Z,59.47
2023-08-22T10:06:46.430Z,59.16
2023-08-22T10:07:37.529Z,59.55
2023-08-22T10:08:37.514Z,59.12
2023-08-22T10:09:37.561Z,59.49
2023-08-22T10:10:37.507Z,60.56
2023-08-22T10:11:37.520Z,61.22
2023-08-22T10:12:37.519Z,62.20
2023-08-22T10:13:37.461Z,61.63
2023-08-22T10:14:37.481Z,60.96
2023-08-22T10:15:37.447Z,60.48
2023-08-22T10:16:37.438Z,61.23
2023-08-22T10:17:37.498Z,61.40
2023-08-22T10:18:37.415Z,61.00
2023-08-22T10:19:37.452Z,60.70
2023-08-22T10:20:37.499Z,60.47
2023-08-22T10:21:37.387Z,60.30
2023-08-22T10:22:37.402Z,60.35
2023-08-22T10:23:37.598Z,60.97
2023-08-22T10:24:37.349Z,60.75
2023-08-22T10:25:37.367Z,60.35
2023-08-22T10:26:42.141Z,60.03
2023-08-22T10:27:37.330Z,59.84
2023-08-22T10:28:37.334Z,57.86
2023-08-22T10:29:37.413Z,58.69
2023-08-22T10:30:37.347Z,59.00
2023-08-22T10:31:37.326Z,58.56
2023-08-22T10:32:37.333Z,57.63
2023-08-22T10:33:37.352Z,57.22
2023-08-22T10:34:37.236Z,57.20
2023-08-22T10:35:37.241Z,56.62
2023-08-22T10:36:37.236Z,55.26
2023-08-22T10:37:37.226Z,55.45
2023-08-22T10:38:37.266Z,55.97
2023-08-22T10:40:37.218Z,55.31
2023-08-22T10:41:37.167Z,56.55
2023-08-22T10:42:37.202Z,56.20
2023-08-22T10:43:37.187Z,55.25
2023-08-22T10:44:37.200Z,55.77
2023-08-22T10:45:37.144Z,55.52
2023-08-22T10:46:37.123Z,55.60
2023-08-22T10:47:37.115Z,55.58
2023-08-22T10:48:37.092Z,54.28
2023-08-22T10:49:38.351Z,54.49
2023-08-22T10:50:37.124Z,54.69
2023-08-22T10:51:37.045Z,53.74
2023-08-22T10:52:37.088Z,53.51
2023-08-22T10:53:37.118Z,51.24
2023-08-22T10:54:37.046Z,52.19
2023-08-22T10:55:37.042Z,50.75
2023-08-22T10:56:37.081Z,48.51
2023-08-22T10:57:36.983Z,47.95
2023-08-22T10:58:37.050Z,48.35
2023-08-22T10:59:38.113Z,48.32
2023-08-22T11:00:37.032Z,46.58
2023-08-22T11:01:37.015Z,46.13
2023-08-22T11:02:36.969Z,45.48
2023-08-22T11:03:37.104Z,46.84
2023-08-22T11:04:36.984Z,47.11
2023-08-22T11:05:36.910Z,48.02
2023-08-22T11:06:36.959Z,46.67
2023-08-22T11:07:36.943Z,46.91
2023-08-22T11:08:36.919Z,46.23
2023-08-22T11:09:36.875Z,45.12
2023-08-22T11:10:36.885Z,45.38
2023-08-22T11:11:36.847Z,46.96
2023-08-22T11:12:36.938Z,48.41
2023-08-22T11:13:36.819Z,49.64
2023-08-22T11:14:36.840Z,49.70
2023-08-22T11:15:36.821Z,50.42
2023-08-22T11:16:36.857Z,51.08
2023-08-22T11:17:36.813Z,51.59
2023-08-22T11:18:36.830Z,50.69
2023-08-22T11:19:36.756Z,50.37
2023-08-22T11:20:36.748Z,51.84
2023-08-22T11:21:36.807Z,52.33
2023-08-22T11:22:36.734Z,52.14
2023-08-22T11:23:36.822Z,52.05
2023-08-22T11:24:36.709Z,51.40
2023-08-22T11:25:36.715Z,52.25
2023-08-22T11:26:36.686Z,53.25
2023-08-22T11:27:36.685Z,53.25
2023-08-22T11:28:36.804Z,53.32
2023-08-22T11:29:36.698Z,53.87
2023-08-22T11:30:36.698Z,53.54
2023-08-22T11:31:36.651Z,52.95
2023-08-22T11:32:36.657Z,52.42
2023-08-22T11:33:36.621Z,52.27
2023-08-22T11:34:36.631Z,52.77
2023-08-22T11:35:36.659Z,52.36
2023-08-22T11:36:36.653Z,52.38
2023-08-22T11:37:36.602Z,52.16
2023-08-22T11:38:36.608Z,53.33
2023-08-22T11:39:36.571Z,51.12
2023-08-22T11:40:36.580Z,51.80
2023-08-22T11:41:36.584Z,52.35
2023-08-22T11:42:36.559Z,52.68
2023-08-22T11:43:37.973Z,52.08
2023-08-22T11:44:36.517Z,52.99
2023-08-22T11:45:36.610Z,52.09
2023-08-22T11:46:36.531Z,53.83
2023-08-22T11:47:36.550Z,53.52
2023-08-22T11:48:36.475Z,53.85
2023-08-22T11:49:36.454Z,54.86
2023-08-22T11:50:36.518Z,54.78
2023-08-22T11:51:36.445Z,52.83
2023-08-22T11:52:36.445Z,54.12
2023-08-22T11:53:36.499Z,54.94
2023-08-22T11:54:36.471Z,54.04
2023-08-22T11:55:36.547Z,54.56
2023-08-22T11:56:36.377Z,53.77
2023-08-22T11:57:36.501Z,54.00
2023-08-22T11:58:36.555Z,54.19
2023-08-22T11:59:36.422Z,53.95
2023-08-22T12:00:36.338Z,54.18
2023-08-22T12:01:36.394Z,54.10
2023-08-22T12:02:36.355Z,54.67
2023-08-22T12:03:36.342Z,53.80
2023-08-22T12:04:36.629Z,52.58
2023-08-22T12:05:36.287Z,52.26
2023-08-22T12:06:36.280Z,52.53
2023-08-22T12:07:36.266Z,53.75
2023-08-22T12:08:36.275Z,53.14
2023-08-22T12:09:36.289Z,53.39
2023-08-22T12:10:36.274Z,53.31
2023-08-22T12:11:36.261Z,52.93
2023-08-22T12:12:36.341Z,53.42
2023-08-22T12:13:36.211Z,53.21
2023-08-22T12:14:36.241Z,54.02
2023-08-22T12:15:36.223Z,55.16
2023-08-22T12:16:36.215Z,54.35
2023-08-22T12:17:36.242Z,53.90
2023-08-22T12:18:36.302Z,53.04
2023-08-22T12:19:36.163Z,52.19
2023-08-22T12:20:36.191Z,53.20
2023-08-22T12:21:36.140Z,53.08
2023-08-22T12:22:36.132Z,52.65
2023-08-22T12:23:36.130Z,52.54
2023-08-22T12:24:36.094Z,52.03
2023-08-22T12:25:36.079Z,52.95
2023-08-22T12:26:36.136Z,51.85
2023-08-22T12:27:36.167Z,52.02
2023-08-22T12:28:36.095Z,51.92
2023-08-22T12:29:36.071Z,53.49
2023-08-22T12:30:36.050Z,52.73
2023-08-22T12:31:36.203Z,53.15
2023-08-22T12:32:36.058Z,53.49
2023-08-22T12:33:36.026Z,54.49
2023-08-22T12:34:36.012Z,52.22
2023-08-22T12:35:36.034Z,53.70
2023-08-22T12:36:35.994Z,54.00
2023-08-22T12:37:36.008Z,55.90
2023-08-22T12:38:36.067Z,55.23
2023-08-22T12:39:35.954Z,54.29
2023-08-22T12:40:35.931Z,53.25
2023-08-22T12:41:35.915Z,53.90
2023-08-22T12:42:35.894Z,54.00
2023-08-22T12:43:35.935Z,54.11
2023-08-22T12:44:35.966Z,54.85
2023-08-22T12:45:35.911Z,55.45
2023-08-22T12:46:35.890Z,56.01
2023-08-22T12:47:35.858Z,56.01
2023-08-22T12:48:36.017Z,55.65
2023-08-22T12:49:35.866Z,56.73
2023-08-22T12:50:35.809Z,56.06
2023-08-22T12:51:37.578Z,56.41
2023-08-22T12:52:35.925Z,56.57
2023-08-22T12:53:35.806Z,55.93